sensor_id;sensor_type;location;lat;lon;timestamp;noise_LAeq;noise_LA_min;noise_LA_max;noise_LA01;noise_LA95
58251;Laerm;51449;51.676;5.812;2023-04-29T00:01:33;49.92;30.15;64.09;;
58251;Laerm;51449;51.676;5.812;2023-04-29T00:03:55;36.08;28.14;50.18;;
58251;Laerm;51449;51.676;5.812;2023-04-29T00:06:17;34.34;27.75;44.55;;
58251;Laerm;51449;51.676;5.812;2023-04-29T00:08:39;54.72;32.58;69.24;;
58251;Laerm;51449;51.676;5.812;2023-04-29T00:11:02;55.62;32.37;70.68;;
58251;Laerm;51449;51.676;5.812;2023-04-29T00:13:23;34.27;30.11;43.71;;
58251;Laerm;51449;51.676;5.812;2023-04-29T00:15:46;49.45;29.98;66.70;;
58251;Laerm;51449;51.676;5.812;2023-04-29T00:18:09;49.06;30.44;66.70;;
58251;Laerm;51449;51.676;5.812;2023-04-29T00:20:31;54.77;28.98;72.18;;
58251;Laerm;51449;51.676;5.812;2023-04-29T00:22:53;50.67;30.73;68.87;;
58251;Laerm;51449;51.676;5.812;2023-04-29T00:25:14;48.80;30.32;66.14;;
58251;Laerm;51449;51.676;5.812;2023-04-29T00:27:37;52.25;31.08;67.92;;
58251;Laerm;51449;51.676;5.812;2023-04-29T00:29:59;47.61;29.92;65.67;;
58251;Laerm;51449;51.676;5.812;2023-04-29T00:32:21;43.85;29.91;62.99;;
58251;Laerm;51449;51.676;5.812;2023-04-29T00:34:43;47.62;29.55;64.14;;
58251;Laerm;51449;51.676;5.812;2023-04-29T00:37:05;51.18;29.44;68.59;;
58251;Laerm;51449;51.676;5.812;2023-04-29T00:39:26;54.36;28.93;69.56;;
58251;Laerm;51449;51.676;5.812;2023-04-29T00:41:48;54.82;30.49;72.15;;
58251;Laerm;51449;51.676;5.812;2023-04-29T00:44:11;36.70;28.99;50.25;;
58251;Laerm;51449;51.676;5.812;2023-04-29T00:46:32;55.28;29.36;71.07;;
58251;Laerm;51449;51.676;5.812;2023-04-29T00:48:55;56.48;28.78;70.58;;
58251;Laerm;51449;51.676;5.812;2023-04-29T00:51:17;56.29;29.98;70.20;;
58251;Laerm;51449;51.676;5.812;2023-04-29T00:53:39;55.42;31.47;72.47;;
58251;Laerm;51449;51.676;5.812;2023-04-29T00:56:02;59.91;30.58;72.12;;
58251;Laerm;51449;51.676;5.812;2023-04-29T00:58:25;39.62;27.95;53.18;;
58251;Laerm;51449;51.676;5.812;2023-04-29T01:00:53;35.70;27.87;59.20;;
58251;Laerm;51449;51.676;5.812;2023-04-29T01:03:18;50.21;27.94;67.37;;
58251;Laerm;51449;51.676;5.812;2023-04-29T01:05:40;59.93;29.98;76.34;;
58251;Laerm;51449;51.676;5.812;2023-04-29T01:11:09;57.86;28.27;71.50;;
58251;Laerm;51449;51.676;5.812;2023-04-29T01:13:57;52.01;27.96;69.56;;
58251;Laerm;51449;51.676;5.812;2023-04-29T01:16:36;56.45;28.83;72.16;;
58251;Laerm;51449;51.676;5.812;2023-04-29T01:19:16;52.54;28.95;67.64;;
58251;Laerm;51449;51.676;5.812;2023-04-29T01:21:47;50.34;29.31;67.08;;
58251;Laerm;51449;51.676;5.812;2023-04-29T01:24:09;51.41;29.61;66.65;;
58251;Laerm;51449;51.676;5.812;2023-04-29T01:26:32;58.41;28.49;74.11;;
58251;Laerm;51449;51.676;5.812;2023-04-29T01:32:09;47.84;28.95;62.23;;
58251;Laerm;51449;51.676;5.812;2023-04-29T01:34:48;58.97;33.63;71.10;;
58251;Laerm;51449;51.676;5.812;2023-04-29T01:37:24;55.80;31.54;73.46;;
58251;Laerm;51449;51.676;5.812;2023-04-29T01:40:33;55.00;31.36;70.92;;
58251;Laerm;51449;51.676;5.812;2023-04-29T01:43:04;50.79;29.39;69.53;;
58251;Laerm;51449;51.676;5.812;2023-04-29T01:45:38;61.40;29.02;78.64;;
58251;Laerm;51449;51.676;5.812;2023-04-29T01:48:04;54.81;31.01;71.54;;
58251;Laerm;51449;51.676;5.812;2023-04-29T01:50:25;57.14;29.70;73.58;;
58251;Laerm;51449;51.676;5.812;2023-04-29T01:52:50;58.81;30.96;75.82;;
58251;Laerm;51449;51.676;5.812;2023-04-29T01:55:14;53.60;29.97;67.74;;
58251;Laerm;51449;51.676;5.812;2023-04-29T01:57:48;56.30;29.52;72.53;;
58251;Laerm;51449;51.676;5.812;2023-04-29T02:00:18;52.77;28.89;68.15;;
58251;Laerm;51449;51.676;5.812;2023-04-29T02:02:45;53.91;28.39;69.34;;
58251;Laerm;51449;51.676;5.812;2023-04-29T02:05:21;57.45;29.12;71.40;;
58251;Laerm;51449;51.676;5.812;2023-04-29T02:07:49;53.30;28.42;70.94;;
58251;Laerm;51449;51.676;5.812;2023-04-29T02:10:12;55.03;27.62;71.23;;
58251;Laerm;51449;51.676;5.812;2023-04-29T02:12:35;56.87;28.47;73.75;;
58251;Laerm;51449;51.676;5.812;2023-04-29T02:14:57;60.08;31.77;72.76;;
58251;Laerm;51449;51.676;5.812;2023-04-29T02:17:20;56.11;28.61;71.01;;
58251;Laerm;51449;51.676;5.812;2023-04-29T02:19:42;55.68;28.09;76.50;;
58251;Laerm;51449;51.676;5.812;2023-04-29T02:22:04;58.93;30.67;74.65;;
58251;Laerm;51449;51.676;5.812;2023-04-29T02:24:26;59.86;33.12;79.70;;
58251;Laerm;51449;51.676;5.812;2023-04-29T02:26:48;58.91;31.12;72.54;;
58251;Laerm;51449;51.676;5.812;2023-04-29T02:29:09;50.41;28.17;67.35;;
58251;Laerm;51449;51.676;5.812;2023-04-29T02:31:32;58.07;30.50;72.50;;
58251;Laerm;51449;51.676;5.812;2023-04-29T02:33:54;55.31;29.86;69.74;;
58251;Laerm;51449;51.676;5.812;2023-04-29T02:36:16;57.74;30.23;74.47;;
58251;Laerm;51449;51.676;5.812;2023-04-29T02:38:38;58.30;29.57;73.29;;
58251;Laerm;51449;51.676;5.812;2023-04-29T02:41:00;57.68;28.58;71.85;;
58251;Laerm;51449;51.676;5.812;2023-04-29T02:43:22;54.39;28.97;71.72;;
58251;Laerm;51449;51.676;5.812;2023-04-29T02:45:43;53.20;28.82;69.19;;
58251;Laerm;51449;51.676;5.812;2023-04-29T02:48:06;52.73;30.50;68.35;;
58251;Laerm;51449;51.676;5.812;2023-04-29T02:50:28;60.40;29.07;72.29;;
58251;Laerm;51449;51.676;5.812;2023-04-29T02:52:49;31.51;28.11;41.72;;
58251;Laerm;51449;51.676;5.812;2023-04-29T02:55:12;51.62;29.06;67.62;;
58251;Laerm;51449;51.676;5.812;2023-04-29T02:57:34;34.43;28.33;51.07;;
58251;Laerm;51449;51.676;5.812;2023-04-29T02:59:55;50.36;32.32;67.66;;
58251;Laerm;51449;51.676;5.812;2023-04-29T03:02:17;56.26;30.40;71.81;;
58251;Laerm;51449;51.676;5.812;2023-04-29T03:04:43;62.41;31.66;78.43;;
58251;Laerm;51449;51.676;5.812;2023-04-29T03:07:04;53.57;31.83;66.02;;
58251;Laerm;51449;51.676;5.812;2023-04-29T03:09:28;56.97;31.74;70.46;;
58251;Laerm;51449;51.676;5.812;2023-04-29T03:11:50;57.32;33.29;73.88;;
58251;Laerm;51449;51.676;5.812;2023-04-29T03:14:12;60.37;35.07;73.71;;
58251;Laerm;51449;51.676;5.812;2023-04-29T03:16:34;55.92;34.06;68.54;;
58251;Laerm;51449;51.676;5.812;2023-04-29T03:18:56;59.67;33.09;72.83;;
58251;Laerm;51449;51.676;5.812;2023-04-29T03:21:18;58.89;35.07;73.78;;
58251;Laerm;51449;51.676;5.812;2023-04-29T03:23:40;62.78;36.31;75.84;;
58251;Laerm;51449;51.676;5.812;2023-04-29T03:26:06;58.69;38.96;73.20;;
58251;Laerm;51449;51.676;5.812;2023-04-29T03:28:27;61.15;42.55;75.67;;
58251;Laerm;51449;51.676;5.812;2023-04-29T03:30:49;63.63;41.20;75.44;;
58251;Laerm;51449;51.676;5.812;2023-04-29T03:33:11;61.26;44.17;74.63;;
58251;Laerm;51449;51.676;5.812;2023-04-29T03:35:33;63.68;45.26;75.07;;
58251;Laerm;51449;51.676;5.812;2023-04-29T03:38:13;66.26;46.80;79.44;;
58251;Laerm;51449;51.676;5.812;2023-04-29T03:40:36;63.99;45.41;79.48;;
58251;Laerm;51449;51.676;5.812;2023-04-29T03:42:58;66.04;49.37;79.16;;
58251;Laerm;51449;51.676;5.812;2023-04-29T03:45:21;65.23;47.43;80.09;;
58251;Laerm;51449;51.676;5.812;2023-04-29T03:47:42;60.86;44.52;75.58;;
58251;Laerm;51449;51.676;5.812;2023-04-29T03:50:06;64.80;47.20;79.60;;
58251;Laerm;51449;51.676;5.812;2023-04-29T03:52:29;66.69;44.91;81.25;;
58251;Laerm;51449;51.676;5.812;2023-04-29T03:54:55;69.38;44.93;85.52;;
58251;Laerm;51449;51.676;5.812;2023-04-29T03:57:17;71.83;44.15;86.89;;
58251;Laerm;51449;51.676;5.812;2023-04-29T03:59:39;64.79;43.06;81.17;;
58251;Laerm;51449;51.676;5.812;2023-04-29T04:02:01;63.10;44.37;75.79;;
58251;Laerm;51449;51.676;5.812;2023-04-29T04:04:23;63.12;47.20;75.26;;
58251;Laerm;51449;51.676;5.812;2023-04-29T04:06:45;62.02;43.44;73.04;;
58251;Laerm;51449;51.676;5.812;2023-04-29T04:09:14;67.64;44.73;82.82;;
58251;Laerm;51449;51.676;5.812;2023-04-29T04:11:35;67.93;46.02;79.22;;
58251;Laerm;51449;51.676;5.812;2023-04-29T04:13:58;68.53;45.51;78.75;;
58251;Laerm;51449;51.676;5.812;2023-04-29T04:16:19;65.73;43.29;75.99;;
58251;Laerm;51449;51.676;5.812;2023-04-29T04:18:41;65.73;44.73;80.74;;
58251;Laerm;51449;51.676;5.812;2023-04-29T04:21:09;63.77;41.19;78.46;;
58251;Laerm;51449;51.676;5.812;2023-04-29T04:23:32;63.02;43.23;76.27;;
58251;Laerm;51449;51.676;5.812;2023-04-29T04:25:57;62.49;40.58;73.69;;
58251;Laerm;51449;51.676;5.812;2023-04-29T04:28:37;64.00;42.52;76.50;;
58251;Laerm;51449;51.676;5.812;2023-04-29T04:31:19;60.58;36.95;77.05;;
58251;Laerm;51449;51.676;5.812;2023-04-29T04:33:41;66.46;39.76;78.87;;
58251;Laerm;51449;51.676;5.812;2023-04-29T04:36:03;66.62;45.06;78.37;;
58251;Laerm;51449;51.676;5.812;2023-04-29T04:38:25;64.16;40.66;77.36;;
58251;Laerm;51449;51.676;5.812;2023-04-29T04:40:48;64.71;40.77;75.06;;
58251;Laerm;51449;51.676;5.812;2023-04-29T04:43:19;64.21;41.84;75.94;;
58251;Laerm;51449;51.676;5.812;2023-04-29T04:45:41;65.07;39.79;76.15;;
58251;Laerm;51449;51.676;5.812;2023-04-29T04:48:03;61.93;37.22;76.35;;
58251;Laerm;51449;51.676;5.812;2023-04-29T04:50:28;61.05;38.11;75.17;;
58251;Laerm;51449;51.676;5.812;2023-04-29T04:52:50;62.03;37.89;74.44;;
58251;Laerm;51449;51.676;5.812;2023-04-29T04:55:32;63.34;38.24;81.53;;
58251;Laerm;51449;51.676;5.812;2023-04-29T04:57:54;60.81;39.71;81.51;;
58251;Laerm;51449;51.676;5.812;2023-04-29T05:00:16;65.21;41.50;77.01;;
58251;Laerm;51449;51.676;5.812;2023-04-29T05:02:38;69.71;40.14;88.59;;
58251;Laerm;51449;51.676;5.812;2023-04-29T05:05:00;59.78;39.90;70.28;;
58251;Laerm;51449;51.676;5.812;2023-04-29T05:07:25;65.22;36.90;76.44;;
58251;Laerm;51449;51.676;5.812;2023-04-29T05:09:54;65.04;39.88;76.61;;
58251;Laerm;51449;51.676;5.812;2023-04-29T05:12:16;61.88;38.84;73.37;;
58251;Laerm;51449;51.676;5.812;2023-04-29T05:14:38;64.10;39.77;75.14;;
58251;Laerm;51449;51.676;5.812;2023-04-29T05:16:59;62.67;38.77;73.12;;
58251;Laerm;51449;51.676;5.812;2023-04-29T05:19:21;62.40;38.59;74.74;;
58251;Laerm;51449;51.676;5.812;2023-04-29T05:21:43;63.62;37.88;79.04;;
58251;Laerm;51449;51.676;5.812;2023-04-29T05:24:05;62.12;38.02;72.43;;
58251;Laerm;51449;51.676;5.812;2023-04-29T05:26:28;62.43;37.35;79.13;;
58251;Laerm;51449;51.676;5.812;2023-04-29T05:28:53;62.70;38.59;79.26;;
58251;Laerm;51449;51.676;5.812;2023-04-29T05:31:16;63.19;38.88;82.31;;
58251;Laerm;51449;51.676;5.812;2023-04-29T05:33:37;63.64;39.11;75.21;;
58251;Laerm;51449;51.676;5.812;2023-04-29T05:35:59;66.04;39.58;83.34;;
58251;Laerm;51449;51.676;5.812;2023-04-29T05:38:21;63.20;43.90;74.11;;
58251;Laerm;51449;51.676;5.812;2023-04-29T05:40:57;64.31;42.40;76.97;;
58251;Laerm;51449;51.676;5.812;2023-04-29T05:43:38;65.86;40.08;80.44;;
58251;Laerm;51449;51.676;5.812;2023-04-29T05:46:00;64.78;40.92;76.72;;
58251;Laerm;51449;51.676;5.812;2023-04-29T05:48:22;63.07;42.27;79.10;;
58251;Laerm;51449;51.676;5.812;2023-04-29T05:50:44;63.81;38.82;81.31;;
58251;Laerm;51449;51.676;5.812;2023-04-29T05:53:06;65.70;38.15;76.90;;
58251;Laerm;51449;51.676;5.812;2023-04-29T05:55:28;63.92;44.02;82.48;;
58251;Laerm;51449;51.676;5.812;2023-04-29T05:57:50;61.55;40.86;74.15;;
58251;Laerm;51449;51.676;5.812;2023-04-29T06:00:12;69.16;43.50;82.82;;
58251;Laerm;51449;51.676;5.812;2023-04-29T06:02:34;62.14;42.41;74.33;;
58251;Laerm;51449;51.676;5.812;2023-04-29T06:05:02;66.86;41.59;77.12;;
58251;Laerm;51449;51.676;5.812;2023-04-29T06:07:33;61.54;40.56;72.11;;
58251;Laerm;51449;51.676;5.812;2023-04-29T06:10:05;63.12;40.69;72.66;;
58251;Laerm;51449;51.676;5.812;2023-04-29T06:12:27;61.77;40.90;73.35;;
58251;Laerm;51449;51.676;5.812;2023-04-29T06:14:50;61.35;40.57;79.55;;
58251;Laerm;51449;51.676;5.812;2023-04-29T06:17:11;66.93;41.78;81.24;;
58251;Laerm;51449;51.676;5.812;2023-04-29T06:19:33;65.04;40.27;80.15;;
58251;Laerm;51449;51.676;5.812;2023-04-29T06:21:55;64.16;38.81;82.27;;
58251;Laerm;51449;51.676;5.812;2023-04-29T06:24:17;60.23;37.48;71.74;;
58251;Laerm;51449;51.676;5.812;2023-04-29T06:26:39;66.98;42.35;79.45;;
58251;Laerm;51449;51.676;5.812;2023-04-29T06:29:01;66.23;37.22;81.70;;
58251;Laerm;51449;51.676;5.812;2023-04-29T06:31:23;66.60;40.47;82.35;;
58251;Laerm;51449;51.676;5.812;2023-04-29T06:33:47;63.45;37.83;78.12;;
58251;Laerm;51449;51.676;5.812;2023-04-29T06:36:09;66.69;44.93;77.60;;
58251;Laerm;51449;51.676;5.812;2023-04-29T06:38:49;66.23;44.46;82.34;;
58251;Laerm;51449;51.676;5.812;2023-04-29T06:41:34;70.58;41.29;88.20;;
58251;Laerm;51449;51.676;5.812;2023-04-29T06:44:00;70.75;41.61;89.14;;
58251;Laerm;51449;51.676;5.812;2023-04-29T06:46:32;68.97;41.35;82.96;;
58251;Laerm;51449;51.676;5.812;2023-04-29T06:48:58;66.88;49.64;80.08;;
58251;Laerm;51449;51.676;5.812;2023-04-29T06:51:20;73.88;45.86;95.35;;
58251;Laerm;51449;51.676;5.812;2023-04-29T06:53:41;62.08;39.38;74.12;;
58251;Laerm;51449;51.676;5.812;2023-04-29T06:56:03;66.06;39.57;77.40;;
58251;Laerm;51449;51.676;5.812;2023-04-29T06:58:26;67.75;44.24;81.14;;
58251;Laerm;51449;51.676;5.812;2023-04-29T07:00:49;66.09;43.82;80.41;;
58251;Laerm;51449;51.676;5.812;2023-04-29T07:03:12;64.96;42.61;75.58;;
58251;Laerm;51449;51.676;5.812;2023-04-29T07:05:34;68.31;43.86;88.22;;
58251;Laerm;51449;51.676;5.812;2023-04-29T07:07:56;67.70;44.77;80.35;;
58251;Laerm;51449;51.676;5.812;2023-04-29T07:10:19;70.63;44.71;86.03;;
58251;Laerm;51449;51.676;5.812;2023-04-29T07:12:40;73.06;43.95;86.06;;
58251;Laerm;51449;51.676;5.812;2023-04-29T07:15:02;68.11;43.83;85.70;;
58251;Laerm;51449;51.676;5.812;2023-04-29T07:17:24;65.25;43.25;75.78;;
58251;Laerm;51449;51.676;5.812;2023-04-29T07:19:46;63.45;41.77;74.17;;
58251;Laerm;51449;51.676;5.812;2023-04-29T07:22:08;65.36;42.37;76.13;;
58251;Laerm;51449;51.676;5.812;2023-04-29T07:24:29;66.33;45.75;79.08;;
58251;Laerm;51449;51.676;5.812;2023-04-29T07:26:51;67.07;45.28;82.84;;
58251;Laerm;51449;51.676;5.812;2023-04-29T07:29:13;68.92;47.70;94.17;;
58251;Laerm;51449;51.676;5.812;2023-04-29T07:31:35;67.78;52.49;82.44;;
58251;Laerm;51449;51.676;5.812;2023-04-29T07:33:59;68.30;47.48;83.08;;
58251;Laerm;51449;51.676;5.812;2023-04-29T07:36:21;68.63;48.08;82.79;;
58251;Laerm;51449;51.676;5.812;2023-04-29T07:38:43;64.41;47.14;73.73;;
58251;Laerm;51449;51.676;5.812;2023-04-29T07:41:04;64.50;44.92;80.20;;
58251;Laerm;51449;51.676;5.812;2023-04-29T07:43:26;67.74;46.79;82.51;;
58251;Laerm;51449;51.676;5.812;2023-04-29T07:45:48;65.73;46.16;78.35;;
58251;Laerm;51449;51.676;5.812;2023-04-29T07:48:10;65.40;44.16;85.44;;
58251;Laerm;51449;51.676;5.812;2023-04-29T07:50:35;66.88;44.81;80.70;;
58251;Laerm;51449;51.676;5.812;2023-04-29T07:52:57;65.46;44.80;77.22;;
58251;Laerm;51449;51.676;5.812;2023-04-29T07:55:21;65.22;47.67;78.80;;
58251;Laerm;51449;51.676;5.812;2023-04-29T07:57:42;64.32;41.54;77.76;;
58251;Laerm;51449;51.676;5.812;2023-04-29T08:00:05;62.28;44.01;72.07;;
58251;Laerm;51449;51.676;5.812;2023-04-29T08:02:35;67.81;43.45;81.53;;
58251;Laerm;51449;51.676;5.812;2023-04-29T08:04:57;65.87;45.29;73.92;;
58251;Laerm;51449;51.676;5.812;2023-04-29T08:07:20;64.07;40.40;77.88;;
58251;Laerm;51449;51.676;5.812;2023-04-29T08:09:41;64.44;42.95;76.19;;
58251;Laerm;51449;51.676;5.812;2023-04-29T08:12:04;66.00;42.32;80.49;;
58251;Laerm;51449;51.676;5.812;2023-04-29T08:14:26;64.31;39.46;89.26;;
58251;Laerm;51449;51.676;5.812;2023-04-29T08:16:48;67.04;43.94;92.55;;
58251;Laerm;51449;51.676;5.812;2023-04-29T08:19:10;67.85;43.26;92.33;;
58251;Laerm;51449;51.676;5.812;2023-04-29T08:21:32;68.42;49.47;81.27;;
58251;Laerm;51449;51.676;5.812;2023-04-29T08:23:55;66.12;44.44;94.42;;
58251;Laerm;51449;51.676;5.812;2023-04-29T08:26:17;64.72;48.44;81.90;;
58251;Laerm;51449;51.676;5.812;2023-04-29T08:28:39;63.13;45.59;74.75;;
58251;Laerm;51449;51.676;5.812;2023-04-29T08:31:00;65.08;46.47;75.24;;
58251;Laerm;51449;51.676;5.812;2023-04-29T08:33:22;64.85;49.91;75.11;;
58251;Laerm;51449;51.676;5.812;2023-04-29T08:35:44;63.74;44.58;74.31;;
58251;Laerm;51449;51.676;5.812;2023-04-29T08:38:07;64.43;44.34;73.39;;
58251;Laerm;51449;51.676;5.812;2023-04-29T08:40:30;63.70;47.24;72.13;;
58251;Laerm;51449;51.676;5.812;2023-04-29T08:42:53;66.18;47.85;76.61;;
58251;Laerm;51449;51.676;5.812;2023-04-29T08:45:19;65.12;44.76;75.58;;
58251;Laerm;51449;51.676;5.812;2023-04-29T08:47:43;65.14;42.33;74.07;;
58251;Laerm;51449;51.676;5.812;2023-04-29T08:50:08;62.57;47.26;73.13;;
58251;Laerm;51449;51.676;5.812;2023-04-29T08:52:31;62.42;45.98;70.11;;
58251;Laerm;51449;51.676;5.812;2023-04-29T08:54:53;64.17;42.66;75.32;;
58251;Laerm;51449;51.676;5.812;2023-04-29T08:57:15;67.63;41.22;78.67;;
58251;Laerm;51449;51.676;5.812;2023-04-29T08:59:37;67.78;52.12;81.64;;
58251;Laerm;51449;51.676;5.812;2023-04-29T09:01:59;68.06;43.08;81.30;;
58251;Laerm;51449;51.676;5.812;2023-04-29T09:04:41;65.09;48.61;80.15;;
58251;Laerm;51449;51.676;5.812;2023-04-29T09:07:09;64.04;41.35;80.91;;
58251;Laerm;51449;51.676;5.812;2023-04-29T09:09:32;64.21;48.18;78.63;;
58251;Laerm;51449;51.676;5.812;2023-04-29T09:11:54;64.15;44.36;72.86;;
58251;Laerm;51449;51.676;5.812;2023-04-29T09:14:17;64.89;44.36;77.05;;
58251;Laerm;51449;51.676;5.812;2023-04-29T09:16:40;61.97;43.24;71.10;;
58251;Laerm;51449;51.676;5.812;2023-04-29T09:19:02;64.95;42.71;79.03;;
58251;Laerm;51449;51.676;5.812;2023-04-29T09:21:26;67.73;45.16;80.29;;
58251;Laerm;51449;51.676;5.812;2023-04-29T09:23:52;66.66;42.81;80.98;;
58251;Laerm;51449;51.676;5.812;2023-04-29T09:26:15;63.16;42.48;78.93;;
58251;Laerm;51449;51.676;5.812;2023-04-29T09:28:37;62.17;42.06;70.97;;
58251;Laerm;51449;51.676;5.812;2023-04-29T09:31:02;62.50;46.84;70.23;;
58251;Laerm;51449;51.676;5.812;2023-04-29T09:33:28;63.49;45.76;74.00;;
58251;Laerm;51449;51.676;5.812;2023-04-29T09:35:51;63.83;45.04;72.06;;
58251;Laerm;51449;51.676;5.812;2023-04-29T09:38:15;65.43;43.64;74.93;;
58251;Laerm;51449;51.676;5.812;2023-04-29T09:40:38;63.13;43.21;73.67;;
58251;Laerm;51449;51.676;5.812;2023-04-29T09:43:19;63.95;45.50;76.48;;
58251;Laerm;51449;51.676;5.812;2023-04-29T09:45:45;65.16;45.29;78.59;;
58251;Laerm;51449;51.676;5.812;2023-04-29T09:48:09;66.70;44.66;81.82;;
58251;Laerm;51449;51.676;5.812;2023-04-29T09:50:32;67.83;40.70;82.43;;
58251;Laerm;51449;51.676;5.812;2023-04-29T09:52:54;67.69;48.99;82.32;;
58251;Laerm;51449;51.676;5.812;2023-04-29T09:55:16;64.92;45.06;76.81;;
58251;Laerm;51449;51.676;5.812;2023-04-29T09:57:39;63.94;42.35;74.74;;
58251;Laerm;51449;51.676;5.812;2023-04-29T10:00:06;66.68;46.19;80.13;;
58251;Laerm;51449;51.676;5.812;2023-04-29T10:02:33;66.68;40.49;82.55;;
58251;Laerm;51449;51.676;5.812;2023-04-29T10:04:57;68.43;47.83;83.19;;
58251;Laerm;51449;51.676;5.812;2023-04-29T10:07:19;67.57;44.78;80.98;;
58251;Laerm;51449;51.676;5.812;2023-04-29T10:09:44;67.50;45.63;80.74;;
58251;Laerm;51449;51.676;5.812;2023-04-29T10:12:08;62.94;42.92;80.60;;
58251;Laerm;51449;51.676;5.812;2023-04-29T10:14:42;63.28;43.70;76.29;;
58251;Laerm;51449;51.676;5.812;2023-04-29T10:18:02;63.92;45.35;73.73;;
58251;Laerm;51449;51.676;5.812;2023-04-29T10:20:36;64.30;42.16;78.59;;
58251;Laerm;51449;51.676;5.812;2023-04-29T10:23:02;71.94;42.51;86.73;;
58251;Laerm;51449;51.676;5.812;2023-04-29T10:25:25;70.65;46.34;85.69;;
58251;Laerm;51449;51.676;5.812;2023-04-29T10:27:49;73.66;47.89;88.46;;
58251;Laerm;51449;51.676;5.812;2023-04-29T10:30:16;69.42;42.20;86.35;;
58251;Laerm;51449;51.676;5.812;2023-04-29T10:32:40;62.61;43.26;73.63;;
58251;Laerm;51449;51.676;5.812;2023-04-29T10:35:14;65.07;48.67;75.83;;
58251;Laerm;51449;51.676;5.812;2023-04-29T10:37:36;60.91;40.74;71.94;;
58251;Laerm;51449;51.676;5.812;2023-04-29T10:40:23;65.55;46.16;80.94;;
58251;Laerm;51449;51.676;5.812;2023-04-29T10:42:51;63.12;43.34;75.28;;
58251;Laerm;51449;51.676;5.812;2023-04-29T10:45:30;66.21;40.14;81.03;;
58251;Laerm;51449;51.676;5.812;2023-04-29T10:50:28;64.42;41.43;76.37;;
58251;Laerm;51449;51.676;5.812;2023-04-29T10:52:51;62.11;44.09;73.79;;
58251;Laerm;51449;51.676;5.812;2023-04-29T10:55:13;61.48;41.07;73.11;;
58251;Laerm;51449;51.676;5.812;2023-04-29T10:57:34;63.87;47.36;80.40;;
58251;Laerm;51449;51.676;5.812;2023-04-29T10:59:56;66.13;48.89;78.76;;
58251;Laerm;51449;51.676;5.812;2023-04-29T11:02:18;63.73;39.26;79.77;;
58251;Laerm;51449;51.676;5.812;2023-04-29T11:05:07;70.65;42.33;86.42;;
58251;Laerm;51449;51.676;5.812;2023-04-29T11:07:29;65.66;46.16;79.38;;
58251;Laerm;51449;51.676;5.812;2023-04-29T11:09:51;67.05;46.18;81.26;;
58251;Laerm;51449;51.676;5.812;2023-04-29T11:12:19;64.29;44.26;78.34;;
58251;Laerm;51449;51.676;5.812;2023-04-29T11:14:48;68.08;44.18;82.63;;
58251;Laerm;51449;51.676;5.812;2023-04-29T11:17:16;69.12;47.32;83.04;;
58251;Laerm;51449;51.676;5.812;2023-04-29T11:19:48;69.04;47.20;83.08;;
58251;Laerm;51449;51.676;5.812;2023-04-29T11:25:07;62.87;43.98;73.83;;
58251;Laerm;51449;51.676;5.812;2023-04-29T11:29:55;63.17;43.82;76.57;;
58251;Laerm;51449;51.676;5.812;2023-04-29T11:32:20;62.19;44.03;78.79;;
58251;Laerm;51449;51.676;5.812;2023-04-29T11:34:43;66.66;46.45;78.89;;
58251;Laerm;51449;51.676;5.812;2023-04-29T11:37:05;63.31;47.31;73.40;;
58251;Laerm;51449;51.676;5.812;2023-04-29T11:39:27;63.67;41.51;75.41;;
58251;Laerm;51449;51.676;5.812;2023-04-29T11:41:49;62.73;41.77;71.26;;
58251;Laerm;51449;51.676;5.812;2023-04-29T11:44:13;62.92;45.70;74.17;;
58251;Laerm;51449;51.676;5.812;2023-04-29T11:46:34;62.98;45.63;76.18;;
58251;Laerm;51449;51.676;5.812;2023-04-29T11:48:57;63.45;45.15;74.03;;
58251;Laerm;51449;51.676;5.812;2023-04-29T11:51:20;63.13;44.74;76.66;;
58251;Laerm;51449;51.676;5.812;2023-04-29T11:53:43;64.39;43.12;75.79;;
58251;Laerm;51449;51.676;5.812;2023-04-29T11:56:05;67.55;49.65;76.02;;
58251;Laerm;51449;51.676;5.812;2023-04-29T11:58:29;63.61;48.76;74.25;;
58251;Laerm;51449;51.676;5.812;2023-04-29T12:00:51;62.46;39.53;77.47;;
58251;Laerm;51449;51.676;5.812;2023-04-29T12:03:17;63.15;42.53;70.17;;
58251;Laerm;51449;51.676;5.812;2023-04-29T12:05:39;64.40;41.91;75.29;;
58251;Laerm;51449;51.676;5.812;2023-04-29T12:08:02;63.22;41.09;74.25;;
58251;Laerm;51449;51.676;5.812;2023-04-29T12:10:23;64.64;47.58;73.93;;
58251;Laerm;51449;51.676;5.812;2023-04-29T12:12:45;62.54;47.24;75.20;;
58251;Laerm;51449;51.676;5.812;2023-04-29T12:15:08;63.57;49.14;81.52;;
58251;Laerm;51449;51.676;5.812;2023-04-29T12:17:31;65.68;46.80;80.39;;
58251;Laerm;51449;51.676;5.812;2023-04-29T12:19:53;66.87;47.81;78.61;;
58251;Laerm;51449;51.676;5.812;2023-04-29T12:22:15;65.89;45.12;77.97;;
58251;Laerm;51449;51.676;5.812;2023-04-29T12:24:39;71.18;44.61;86.15;;
58251;Laerm;51449;51.676;5.812;2023-04-29T12:27:02;68.52;43.08;86.94;;
58251;Laerm;51449;51.676;5.812;2023-04-29T12:29:25;67.39;43.64;80.99;;
58251;Laerm;51449;51.676;5.812;2023-04-29T12:31:47;66.16;45.15;82.19;;
58251;Laerm;51449;51.676;5.812;2023-04-29T12:34:08;65.69;42.58;78.38;;
58251;Laerm;51449;51.676;5.812;2023-04-29T12:36:32;61.35;48.58;72.80;;
58251;Laerm;51449;51.676;5.812;2023-04-29T12:38:55;63.62;45.67;73.65;;
58251;Laerm;51449;51.676;5.812;2023-04-29T12:41:17;63.18;42.34;75.29;;
58251;Laerm;51449;51.676;5.812;2023-04-29T12:43:40;63.89;40.07;75.12;;
58251;Laerm;51449;51.676;5.812;2023-04-29T12:46:07;61.47;41.55;74.69;;
58251;Laerm;51449;51.676;5.812;2023-04-29T12:48:30;63.11;46.29;73.86;;
58251;Laerm;51449;51.676;5.812;2023-04-29T12:50:55;67.11;44.23;82.52;;
58251;Laerm;51449;51.676;5.812;2023-04-29T12:53:18;70.24;40.01;82.68;;
58251;Laerm;51449;51.676;5.812;2023-04-29T12:55:41;67.79;47.87;80.90;;
58251;Laerm;51449;51.676;5.812;2023-04-29T12:58:04;66.14;46.74;79.84;;
58251;Laerm;51449;51.676;5.812;2023-04-29T13:00:26;62.78;38.73;77.11;;
58251;Laerm;51449;51.676;5.812;2023-04-29T13:02:47;63.59;41.52;77.41;;
58251;Laerm;51449;51.676;5.812;2023-04-29T13:05:09;62.87;43.19;78.65;;
58251;Laerm;51449;51.676;5.812;2023-04-29T13:07:32;64.43;41.78;74.83;;
58251;Laerm;51449;51.676;5.812;2023-04-29T13:09:54;61.71;41.40;78.55;;
58251;Laerm;51449;51.676;5.812;2023-04-29T13:12:16;64.64;48.24;82.81;;
58251;Laerm;51449;51.676;5.812;2023-04-29T13:14:38;64.49;47.09;83.42;;
58251;Laerm;51449;51.676;5.812;2023-04-29T13:16:59;62.20;47.00;75.54;;
58251;Laerm;51449;51.676;5.812;2023-04-29T13:19:21;64.21;49.74;77.13;;
58251;Laerm;51449;51.676;5.812;2023-04-29T13:21:46;65.39;45.51;85.86;;
58251;Laerm;51449;51.676;5.812;2023-04-29T13:24:08;61.60;43.54;73.62;;
58251;Laerm;51449;51.676;5.812;2023-04-29T13:26:30;63.65;46.51;79.31;;
58251;Laerm;51449;51.676;5.812;2023-04-29T13:28:52;64.04;48.04;80.86;;
58251;Laerm;51449;51.676;5.812;2023-04-29T13:31:14;64.45;50.45;87.34;;
58251;Laerm;51449;51.676;5.812;2023-04-29T13:33:37;63.34;38.32;74.59;;
58251;Laerm;51449;51.676;5.812;2023-04-29T13:36:01;60.93;41.51;77.87;;
58251;Laerm;51449;51.676;5.812;2023-04-29T13:38:22;61.72;45.77;73.74;;
58251;Laerm;51449;51.676;5.812;2023-04-29T13:40:44;61.47;45.40;70.75;;
58251;Laerm;51449;51.676;5.812;2023-04-29T13:43:08;63.18;46.26;76.16;;